createdAt,value
2018-11-12T00:01:56.258Z,98120.63
2018-11-12T00:07:06.336Z,98111.83
2018-11-12T00:12:09.534Z,98116.94
2018-11-12T00:17:12.762Z,98111.83
2018-11-12T00:22:16.030Z,98106.72
2018-11-12T00:27:19.246Z,98103.84
2018-11-12T00:32:22.444Z,98115.66
2018-11-12T00:37:25.627Z,98105.80
2018-11-12T00:42:28.814Z,98114.15
2018-11-12T00:47:32.019Z,98107.27
2018-11-12T00:52:35.374Z,98115.64
2018-11-12T00:57:38.910Z,98119.88
2018-11-12T01:02:44.243Z,98114.28
2018-11-12T01:07:47.983Z,98120.66
2018-11-12T01:12:51.214Z,98121.45
2018-11-12T01:17:54.405Z,98119.17
2018-11-12T01:22:57.602Z,98124.69
2018-11-12T01:28:00.883Z,98126.25
2018-11-12T01:33:04.735Z,98118.68
2018-11-12T01:38:07.946Z,98119.95
2018-11-12T01:43:11.128Z,98108.05
2018-11-12T01:48:14.350Z,98115.70
2018-11-12T01:53:17.552Z,98110.80
2018-11-12T01:58:20.768Z,98115.45
2018-11-12T02:03:23.985Z,98115.45
2018-11-12T02:08:27.222Z,98094.69
2018-11-12T02:13:30.470Z,98091.15
2018-11-12T02:18:33.691Z,98099.20
2018-11-12T02:23:37.203Z,98090.83
2018-11-12T02:28:40.450Z,98093.42
2018-11-12T02:33:43.655Z,98087.41
2018-11-12T02:38:46.831Z,98077.48
2018-11-12T02:43:50.005Z,98081.03
2018-11-12T02:48:53.159Z,98065.22
2018-11-12T02:53:56.439Z,98068.84
2018-11-12T02:58:59.642Z,98077.00
2018-11-12T03:04:02.838Z,98072.37
2018-11-12T03:09:10.697Z,98073.73
2018-11-12T03:14:13.955Z,98070.91
2018-11-12T03:19:17.154Z,98064.81
2018-11-12T03:24:20.367Z,98065.88
2018-11-12T03:29:23.600Z,98059.31
2018-11-12T03:34:26.750Z,98059.59
2018-11-12T03:39:29.960Z,98055.08
2018-11-12T03:44:33.165Z,98059.70
2018-11-12T03:49:36.398Z,98060.93
2018-11-12T03:54:39.651Z,98052.61
2018-11-12T03:59:42.847Z,98059.64
2018-11-12T04:04:46.130Z,98059.77
2018-11-12T04:09:49.318Z,98057.42
2018-11-12T04:14:52.516Z,98061.39
2018-11-12T04:19:55.704Z,98054.62
2018-11-12T04:24:58.882Z,98051.38
2018-11-12T04:30:02.070Z,98062.17
2018-11-12T04:35:05.836Z,98060.85
2018-11-12T04:40:12.767Z,98058.08
2018-11-12T04:45:17.934Z,98063.52
2018-11-12T04:50:23.361Z,98062.09
2018-11-12T04:55:26.772Z,98071.10
2018-11-12T05:00:29.836Z,98068.97
2018-11-12T05:05:33.005Z,98077.80
2018-11-12T05:10:36.162Z,98079.95
2018-11-12T05:15:39.390Z,98084.34
2018-11-12T05:20:42.588Z,98088.22
2018-11-12T05:25:45.914Z,98086.70
2018-11-12T05:30:49.151Z,98084.16
2018-11-12T05:35:52.325Z,98080.95
2018-11-12T05:40:55.567Z,98078.49
2018-11-12T05:45:58.767Z,98076.28
2018-11-12T05:51:01.949Z,98073.55
2018-11-12T05:56:05.546Z,98078.78
2018-11-12T06:01:08.782Z,98074.70
2018-11-12T06:06:11.987Z,98081.69
2018-11-12T06:11:15.146Z,98083.39
2018-11-12T06:16:18.567Z,98084.23
2018-11-12T06:21:21.783Z,98074.66
2018-11-12T06:26:25.077Z,98071.05
2018-11-12T06:31:28.279Z,98076.98
2018-11-12T06:36:31.562Z,98073.85
2018-11-12T06:41:34.750Z,98076.77
2018-11-12T06:46:37.944Z,98075.44
2018-11-12T06:51:41.137Z,98077.73
2018-11-12T06:56:44.396Z,98073.98
2018-11-12T07:01:47.579Z,98082.26
2018-11-12T07:06:50.930Z,98081.70
2018-11-12T07:11:54.171Z,98085.06
2018-11-12T07:16:57.400Z,98084.97
2018-11-12T07:22:01.754Z,98087.78
2018-11-12T07:27:05.097Z,98086.30
2018-11-12T07:32:08.331Z,98083.14
2018-11-12T07:37:11.852Z,98087.45
2018-11-12T07:42:15.148Z,98091.62
2018-11-12T07:47:18.372Z,98096.05
2018-11-12T07:52:21.659Z,98093.86
2018-11-12T07:57:25.015Z,98093.81
2018-11-12T08:02:28.223Z,98086.48
2018-11-12T08:07:31.395Z,98095.66
2018-11-12T08:12:34.602Z,98091.05
2018-11-12T08:17:37.951Z,98094.50
2018-11-12T08:22:41.745Z,98093.53
2018-11-12T08:27:45.587Z,98091.05
2018-11-12T08:32:50.356Z,98093.36
2018-11-12T08:37:54.146Z,98084.80
2018-11-12T08:42:57.565Z,98079.92
2018-11-12T08:48:00.924Z,98086.46
2018-11-12T08:53:04.539Z,98089.39
2018-11-12T08:58:08.173Z,98083.34
2018-11-12T09:03:12.125Z,98084.50
2018-11-12T09:08:15.502Z,98083.64
2018-11-12T09:13:18.863Z,98091.38
2018-11-12T09:18:22.118Z,98087.56
2018-11-12T09:23:25.324Z,98093.91
2018-11-12T09:28:29.206Z,98092.80
2018-11-12T09:33:32.736Z,98088.42
2018-11-12T09:38:36.255Z,98090.67
2018-11-12T09:43:39.485Z,98090.91
2018-11-12T09:48:42.971Z,98088.58
2018-11-12T09:53:46.462Z,98082.21
2018-11-12T09:58:49.686Z,98083.92
2018-11-12T10:03:54.747Z,98085.00
2018-11-12T10:09:00.477Z,98070.11
2018-11-12T10:14:02.452Z,98095.47
2018-11-12T10:19:04.888Z,98114.00
2018-11-12T10:24:07.998Z,98113.38
2018-11-12T10:29:11.322Z,98110.72
2018-11-12T10:34:14.540Z,98110.63
2018-11-12T10:39:17.761Z,98122.96
2018-11-12T10:44:21.042Z,98133.07
2018-11-12T10:49:24.230Z,98122.48
2018-11-12T10:54:27.632Z,98126.71
2018-11-12T10:59:30.892Z,98116.20
2018-11-12T11:04:34.163Z,98130.36
2018-11-12T11:09:37.419Z,98121.23
2018-11-12T11:14:40.602Z,98126.73
2018-11-12T11:19:43.864Z,98136.47
2018-11-12T11:24:47.030Z,98132.82
2018-11-12T11:29:50.215Z,98126.70
2018-11-12T11:34:54.084Z,98125.33
2018-11-12T11:39:57.374Z,98125.41
2018-11-12T11:45:00.633Z,98131.94
2018-11-12T11:50:04.255Z,98139.73
2018-11-12T11:55:11.615Z,98138.51
2018-11-12T12:00:21.735Z,98148.74
2018-11-12T12:05:25.748Z,98152.12
2018-11-12T12:10:28.974Z,98142.45
2018-11-12T12:15:34.521Z,98152.67
2018-11-12T12:20:37.759Z,98157.47
2018-11-12T12:25:41.127Z,98174.66
2018-11-12T12:30:44.324Z,98182.44
2018-11-12T12:35:47.878Z,98172.28
2018-11-12T12:40:51.139Z,98179.44
2018-11-12T12:51:10.117Z,98191.86
2018-11-12T12:56:13.834Z,98182.35
2018-11-12T13:01:17.156Z,98154.16
2018-11-12T13:06:20.478Z,98168.64
2018-11-12T13:11:23.743Z,98166.47
2018-11-12T13:16:27.123Z,98172.10
2018-11-12T13:21:30.713Z,98176.98
2018-11-12T13:26:33.906Z,98189.08
2018-11-12T13:31:37.182Z,98176.84
2018-11-12T13:36:40.483Z,98165.03
2018-11-12T13:41:43.723Z,98174.52
2018-11-12T13:46:53.301Z,98174.91
2018-11-12T13:51:56.567Z,98180.51
2018-11-12T13:56:59.830Z,98183.81
2018-11-12T14:02:03.157Z,98177.82
2018-11-12T14:07:06.413Z,98173.20
2018-11-12T14:12:09.627Z,98166.50
2018-11-12T14:17:12.916Z,98170.80
2018-11-12T14:22:16.155Z,98178.59
2018-11-12T14:27:19.395Z,98182.35
2018-11-12T14:32:22.691Z,98180.31
2018-11-12T14:37:25.935Z,98186.87
2018-11-12T14:42:29.208Z,98181.44
2018-11-12T14:47:32.449Z,98177.56
2018-11-12T14:52:35.771Z,98168.23
2018-11-12T14:57:39.106Z,98177.72
2018-11-12T15:02:42.402Z,98180.20
2018-11-12T15:07:45.767Z,98193.66
2018-11-12T15:12:49.510Z,98198.34
2018-11-12T15:17:52.775Z,98206.88
2018-11-12T15:22:55.990Z,98204.95
2018-11-12T15:27:59.278Z,98210.12
2018-11-12T15:33:02.579Z,98214.56
2018-11-12T15:38:06.355Z,98217.30
2018-11-12T15:43:09.663Z,98233.75
2018-11-12T15:48:12.910Z,98236.58
2018-11-12T15:53:16.146Z,98239.39
2018-11-12T15:58:19.469Z,98253.16
2018-11-12T16:03:22.758Z,98256.27
2018-11-12T16:08:26.003Z,98269.81
2018-11-12T16:13:29.251Z,98272.73
2018-11-12T16:18:32.520Z,98278.72
2018-11-12T16:23:35.753Z,98278.14
2018-11-12T16:28:39.022Z,98279.45
2018-11-12T16:33:42.291Z,98285.08
2018-11-12T16:38:45.546Z,98294.89
2018-11-12T16:43:48.821Z,98297.95
2018-11-12T16:48:52.154Z,98305.17
2018-11-12T16:53:55.397Z,98311.17
2018-11-12T16:58:58.630Z,98311.36
2018-11-12T17:04:01.918Z,98336.60
2018-11-12T17:09:10.587Z,98340.20
2018-11-12T17:14:13.967Z,98344.41
2018-11-12T17:19:17.371Z,98348.47
2018-11-12T17:24:20.762Z,98355.91
2018-11-12T17:29:24.238Z,98360.73
2018-11-12T17:34:27.582Z,98361.67
2018-11-12T17:39:30.833Z,98371.07
2018-11-12T17:44:34.135Z,98379.34
2018-11-12T17:49:37.432Z,98380.05
2018-11-12T17:54:40.761Z,98381.78
2018-11-12T17:59:44.105Z,98379.98
2018-11-12T18:04:47.462Z,98389.00
2018-11-12T18:09:50.795Z,98389.18
2018-11-12T18:14:54.074Z,98388.59
2018-11-12T18:19:57.461Z,98390.28
2018-11-12T18:25:00.698Z,98386.50
2018-11-12T18:30:06.966Z,98395.95
2018-11-12T18:35:10.273Z,98402.01
2018-11-12T18:40:14.938Z,98401.66
2018-11-12T18:45:19.673Z,98406.50
2018-11-12T18:50:26.448Z,98400.13
2018-11-12T18:55:29.787Z,98397.64
2018-11-12T19:00:33.088Z,98405.26
2018-11-12T19:05:36.449Z,98398.97
2018-11-12T19:10:39.836Z,98405.08
2018-11-12T19:15:43.171Z,98405.16
2018-11-12T19:20:46.513Z,98413.02
2018-11-12T19:25:49.894Z,98412.31
2018-11-12T19:30:53.402Z,98415.76
2018-11-12T19:35:57.286Z,98411.33
2018-11-12T19:41:00.662Z,98420.75
2018-11-12T19:46:04.484Z,98419.50
2018-11-12T19:51:07.825Z,98427.01
2018-11-12T19:56:11.234Z,98422.84
2018-11-12T20:01:14.539Z,98426.79
2018-11-12T20:06:17.836Z,98432.80
2018-11-12T20:11:21.182Z,98431.03
2018-11-12T20:16:24.579Z,98425.40
2018-11-12T20:21:28.041Z,98430.73
2018-11-12T20:26:31.442Z,98434.03
2018-11-12T20:31:34.709Z,98429.13
2018-11-12T20:36:38.055Z,98433.36
2018-11-12T20:41:41.406Z,98438.97
2018-11-12T20:46:44.611Z,98428.61
2018-11-12T20:51:47.909Z,98437.28
2018-11-12T20:56:51.182Z,98436.59
2018-11-12T21:01:54.461Z,98435.12
2018-11-12T21:06:57.761Z,98434.27
2018-11-12T21:12:01.012Z,98436.13
2018-11-12T21:17:04.680Z,98436.06
2018-11-12T21:22:11.308Z,98438.91
2018-11-12T21:27:14.539Z,98442.66
2018-11-12T21:32:17.818Z,98443.91
2018-11-12T21:37:21.192Z,98439.28
2018-11-12T21:42:24.451Z,98437.60
2018-11-12T21:47:27.675Z,98437.52
2018-11-12T21:52:30.976Z,98443.52
2018-11-12T21:57:34.225Z,98443.20
2018-11-12T22:02:37.496Z,98439.16
2018-11-12T22:07:40.803Z,98446.17
2018-11-12T22:12:45.291Z,98448.63
2018-11-12T22:17:48.546Z,98457.31
2018-11-12T22:22:51.817Z,98451.98
2018-11-12T22:27:55.098Z,98453.93
2018-11-12T22:32:58.299Z,98461.33
2018-11-12T22:38:01.554Z,98457.91
2018-11-12T22:43:04.840Z,98452.78
2018-11-12T22:48:08.094Z,98462.12
2018-11-12T22:53:11.398Z,98455.23
2018-11-12T22:58:14.553Z,98444.88
2018-11-12T23:03:17.902Z,98451.09
2018-11-12T23:08:21.094Z,98444.41
2018-11-12T23:13:24.283Z,98446.95
2018-11-12T23:18:27.517Z,98439.66
2018-11-12T23:23:30.809Z,98444.02
2018-11-12T23:28:34.001Z,98440.43
2018-11-12T23:33:37.196Z,98445.78
2018-11-12T23:38:40.411Z,98447.72
2018-11-12T23:43:43.619Z,98450.58
2018-11-12T23:48:47.082Z,98439.16
2018-11-12T23:53:50.262Z,98451.38
2018-11-12T23:58:53.451Z,98447.13
